Map

Track Data

SID SEASON NUMBER BASIN SUBBASIN NAME ISO_TIME NATURE LAT LON WMO_WIND WMO_PRES WMO_AGENCY TRACK_TYPE DIST2LAND LANDFALL IFLAG USA_AGENCY USA_ATCF_ID USA_LAT USA_LON USA_RECORD USA_STATUS USA_WIND USA_PRES USA_SSHS USA_R34_NE USA_R34_SE USA_R34_SW USA_R34_NW USA_R50_NE USA_R50_SE USA_R50_SW USA_R50_NW USA_R64_NE USA_R64_SE USA_R64_SW USA_R64_NW USA_POCI USA_ROCI USA_RMW USA_EYE TOKYO_LAT TOKYO_LON TOKYO_GRADE TOKYO_WIND TOKYO_PRES TOKYO_R50_DIR TOKYO_R50_LONG TOKYO_R50_SHORT TOKYO_R30_DIR TOKYO_R30_LONG TOKYO_R30_SHORT TOKYO_LAND CMA_LAT CMA_LON CMA_CAT CMA_WIND CMA_PRES HKO_LAT HKO_LON HKO_CAT HKO_WIND HKO_PRES NEWDELHI_LAT NEWDELHI_LON NEWDELHI_GRADE NEWDELHI_WIND NEWDELHI_PRES NEWDELHI_CI NEWDELHI_DP NEWDELHI_POCI REUNION_LAT REUNION_LON REUNION_TYPE REUNION_WIND REUNION_PRES REUNION_TNUM REUNION_CI REUNION_RMW REUNION_R34_NE REUNION_R34_SE REUNION_R34_SW REUNION_R34_NW REUNION_R50_NE REUNION_R50_SE REUNION_R50_SW REUNION_R50_NW REUNION_R64_NE REUNION_R64_SE REUNION_R64_SW REUNION_R64_NW BOM_LAT BOM_LON BOM_TYPE BOM_WIND BOM_PRES BOM_TNUM BOM_CI BOM_RMW BOM_R34_NE BOM_R34_SE BOM_R34_SW BOM_R34_NW BOM_R50_NE BOM_R50_SE BOM_R50_SW BOM_R50_NW BOM_R64_NE BOM_R64_SE BOM_R64_SW BOM_R64_NW BOM_ROCI BOM_POCI BOM_EYE BOM_POS_METHOD BOM_PRES_METHOD NADI_LAT NADI_LON NADI_CAT NADI_WIND NADI_PRES WELLINGTON_LAT WELLINGTON_LON WELLINGTON_WIND WELLINGTON_PRES DS824_LAT DS824_LON DS824_STAGE DS824_WIND DS824_PRES TD9636_LAT TD9636_LON TD9636_STAGE TD9636_WIND TD9636_PRES TD9635_LAT TD9635_LON TD9635_WIND TD9635_PRES TD9635_ROCI NEUMANN_LAT NEUMANN_LON NEUMANN_CLASS NEUMANN_WIND NEUMANN_PRES MLC_LAT MLC_LON MLC_CLASS MLC_WIND MLC_PRES USA_GUST BOM_GUST BOM_GUST_PER REUNION_GUST REUNION_GUST_PER USA_SEAHGT USA_SEARAD_NE USA_SEARAD_SE USA_SEARAD_SW USA_SEARAD_NW STORM_SPEED STORM_DIR
1900236N20123 1900 19 WP MM NOT_NAMED 1900-08-23 16:00:00 NR 19.7000 123.300 main 179 179 __________O___ -1 19.7000 123.300 2 3 346
1900236N20123 1900 19 WP MM NOT_NAMED 1900-08-23 18:00:00 NR 19.7859 123.277 main 188 188 __________P___ -1 19.7859 123.277 2 3 346
1900236N20123 1900 19 WP MM NOT_NAMED 1900-08-23 21:00:00 NR 19.9201 123.239 main 192 192 __________P___ -1 19.9201 123.239 2 3 344
1900236N20123 1900 19 WP MM NOT_NAMED 1900-08-24 00:00:00 NR 20.0679 123.191 main 212 212 __________P___ -1 20.0679 123.191 2 3 342
1900236N20123 1900 19 WP MM NOT_NAMED 1900-08-24 03:00:00 NR 20.2373 123.126 main 218 218 __________P___ -1 20.2373 123.126 2 4 340
1900236N20123 1900 19 WP MM NOT_NAMED 1900-08-24 04:00:00 NR 20.3000 123.100 main 228 228 __________O___ -1 20.3000 123.100 2 4 338
1900236N20123 1900 19 WP MM NOT_NAMED 1900-08-24 06:00:00 NR 20.4355 123.040 main 235 235 __________P___ -1 20.4355 123.040 2 5 337
1900236N20123 1900 19 WP MM NOT_NAMED 1900-08-24 09:00:00 NR 20.6578 122.936 main 246 226 __________P___ -1 20.6578 122.936 2 5 337
1900236N20123 1900 19 WP MM NOT_NAMED 1900-08-24 12:00:00 NR 20.8917 122.829 main 226 206 __________P___ -1 20.8917 122.829 2 5 338
1900236N20123 1900 19 WP MM NOT_NAMED 1900-08-24 15:00:00 NR 21.1247 122.729 main 206 201 __________P___ -1 21.1247 122.729 2 5 339
1900236N20123 1900 19 WP MM NOT_NAMED 1900-08-24 16:00:00 NR 21.2000 122.700 main 201 197 __________O___ -1 21.2000 122.700 2 4 342
1900236N20123 1900 19 WP MM NOT_NAMED 1900-08-24 18:00:00 NR 21.3338 122.658 main 197 181 __________P___ -1 21.3338 122.658 2 4 345
1900236N20123 1900 19 WP MM NOT_NAMED 1900-08-24 21:00:00 NR 21.5280 122.607 main 181 176 __________P___ -1 21.5280 122.607 2 4 347
1900236N20123 1900 19 WP MM NOT_NAMED 1900-08-25 00:00:00 NR 21.7229 122.563 main 176 165 __________P___ -1 21.7229 122.563 2 4 349
1900236N20123 1900 19 WP MM NOT_NAMED 1900-08-25 03:00:00 NR 21.9278 122.517 main 165 164 __________P___ -1 21.9278 122.517 2 4 349
1900236N20123 1900 19 WP MM NOT_NAMED 1900-08-25 04:00:00 NR 22.0000 122.500 main 164 151 __________O___ -1 22.0000 122.500 2 5 346
1900236N20123 1900 19 WP MM NOT_NAMED 1900-08-25 06:00:00 NR 22.1552 122.463 main 151 128 __________P___ -1 22.1552 122.463 2 5 347
1900236N20123 1900 19 WP MM NOT_NAMED 1900-08-25 09:00:00 NR 22.4007 122.403 main 128 102 __________P___ -1 22.4007 122.403 2 5 346
1900236N20123 1900 19 WP MM NOT_NAMED 1900-08-25 12:00:00 NR 22.6557 122.329 main 102 84 __________P___ -1 22.6557 122.329 2 5 344
1900236N20123 1900 19 WP MM NOT_NAMED 1900-08-25 15:00:00 NR 22.9142 122.236 main 84 82 __________P___ -1 22.9142 122.236 2 5 341
1900236N20123 1900 19 WP MM NOT_NAMED 1900-08-25 16:00:00 NR 23.0000 122.200 main 82 71 __________O___ -1 23.0000 122.200 2 5 336
1900236N20123 1900 19 WP MM NOT_NAMED 1900-08-25 18:00:00 NR 23.1562 122.112 main 71 60 __________P___ -1 23.1562 122.112 2 5 331
1900236N20123 1900 19 WP MM NOT_NAMED 1900-08-25 21:00:00 NR 23.3903 121.961 main 60 32 __________P___ -1 23.3903 121.961 2 6 329
1900236N20123 1900 19 WP MM NOT_NAMED 1900-08-26 00:00:00 NR 23.6352 121.801 main 32 10 __________P___ -1 23.6352 121.801 2 6 331
1900236N20123 1900 19 WP MM NOT_NAMED 1900-08-26 03:00:00 NR 23.9033 121.647 main 10 10 __________P___ -1 23.9033 121.647 2 6 334
1900236N20123 1900 19 WP MM NOT_NAMED 1900-08-26 04:00:00 NR 24.0000 121.600 main 10 0 __________O___ -1 24.0000 121.600 2 6 341
1900236N20123 1900 19 WP MM NOT_NAMED 1900-08-26 06:00:00 NR 24.2052 121.529 main 0 0 __________P___ -1 24.2052 121.529 2 7 345
1900236N20123 1900 19 WP MM NOT_NAMED 1900-08-26 09:00:00 NR 24.5381 121.437 main 0 0 __________P___ -1 24.5381 121.437 2 7 346
1900236N20123 1900 19 WP MM NOT_NAMED 1900-08-26 12:00:00 NR 24.8956 121.345 main 0 0 __________P___ -1 24.8956 121.345 2 8 346
1900236N20123 1900 19 WP MM NOT_NAMED 1900-08-26 15:00:00 NR 25.2717 121.241 main 22 22 __________P___ -1 25.2717 121.241 2 8 345
1900236N20123 1900 19 WP MM NOT_NAMED 1900-08-26 16:00:00 NR 25.4000 121.200 main 30 30 __________O___ -1 25.4000 121.200 2 8 343
1900236N20123 1900 19 WP MM NOT_NAMED 1900-08-26 18:00:00 NR 25.6600 121.108 main 63 63 __________P___ -1 25.6600 121.108 2 8 341
1900236N20123 1900 19 WP MM NOT_NAMED 1900-08-26 21:00:00 NR 26.0567 120.946 main 97 70 __________P___ -1 26.0567 120.946 2 9 339
1900236N20123 1900 19 WP MM NOT_NAMED 1900-08-27 00:00:00 NR 26.4591 120.763 main 70 29 __________P___ -1 26.4591 120.763 2 9 337
1900236N20123 1900 19 WP MM NOT_NAMED 1900-08-27 03:00:00 NR 26.8646 120.567 main 29 14 __________P___ -1 26.8646 120.567 2 9 337
1900236N20123 1900 19 WP MM NOT_NAMED 1900-08-27 04:00:00 NR 27.0000 120.500 main 14 __________O___ -1 27.0000 120.500 2 9 336

Digital Typhoon Data and Search

About IBTrACS Database

This database is a web-friendly format of International Best Track Archive for Climate Stewardship (IBTrACS), a global best track data archive curated by NOAA dating back to 1842.

Updated: 2021-10-19